sensor_id;sensor_type;location;lat;lon;timestamp;temperature;humidity
10572;DHT22;5334;48.928;12.704;2022-07-03T00:04:29;16.40;99.90
10572;DHT22;5334;48.928;12.704;2022-07-03T00:06:54;16.40;99.90
10572;DHT22;5334;48.928;12.704;2022-07-03T00:09:20;16.30;99.90
10572;DHT22;5334;48.928;12.704;2022-07-03T00:11:46;16.40;99.90
10572;DHT22;5334;48.928;12.704;2022-07-03T00:14:12;16.40;99.90
10572;DHT22;5334;48.928;12.704;2022-07-03T00:16:38;16.40;99.90
10572;DHT22;5334;48.928;12.704;2022-07-03T00:19:04;16.40;99.90
10572;DHT22;5334;48.928;12.704;2022-07-03T00:21:34;16.40;99.90
10572;DHT22;5334;48.928;12.704;2022-07-03T00:24:09;16.30;99.90
10572;DHT22;5334;48.928;12.704;2022-07-03T00:26:39;16.40;99.90
10572;DHT22;5334;48.928;12.704;2022-07-03T00:29:07;16.30;99.90
10572;DHT22;5334;48.928;12.704;2022-07-03T00:31:34;16.30;99.90
10572;DHT22;5334;48.928;12.704;2022-07-03T00:36:30;16.10;99.90
10572;DHT22;5334;48.928;12.704;2022-07-03T00:38:58;16.00;99.90
10572;DHT22;5334;48.928;12.704;2022-07-03T00:41:26;16.00;99.90
10572;DHT22;5334;48.928;12.704;2022-07-03T00:46:24;15.90;99.90
10572;DHT22;5334;48.928;12.704;2022-07-03T00:48:52;15.90;99.90
10572;DHT22;5334;48.928;12.704;2022-07-03T00:51:24;15.90;99.90
10572;DHT22;5334;48.928;12.704;2022-07-03T00:53:56;15.90;99.90
10572;DHT22;5334;48.928;12.704;2022-07-03T00:56:30;16.00;99.90
10572;DHT22;5334;48.928;12.704;2022-07-03T00:59:00;16.00;99.90
10572;DHT22;5334;48.928;12.704;2022-07-03T01:01:30;16.00;99.90
10572;DHT22;5334;48.928;12.704;2022-07-03T01:07:00;16.00;99.90
10572;DHT22;5334;48.928;12.704;2022-07-03T01:12:32;15.90;99.90
10572;DHT22;5334;48.928;12.704;2022-07-03T01:15:07;15.90;99.90
10572;DHT22;5334;48.928;12.704;2022-07-03T01:17:39;15.90;99.90
10572;DHT22;5334;48.928;12.704;2022-07-03T01:20:06;15.90;99.90
10572;DHT22;5334;48.928;12.704;2022-07-03T01:22:48;15.90;99.90
10572;DHT22;5334;48.928;12.704;2022-07-03T01:28:06;15.90;99.90
10572;DHT22;5334;48.928;12.704;2022-07-03T01:30:36;15.90;99.90
10572;DHT22;5334;48.928;12.704;2022-07-03T01:33:06;15.90;99.90
10572;DHT22;5334;48.928;12.704;2022-07-03T01:35:40;16.00;99.90
10572;DHT22;5334;48.928;12.704;2022-07-03T01:38:10;16.00;99.90
10572;DHT22;5334;48.928;12.704;2022-07-03T01:40:38;16.10;99.90
10572;DHT22;5334;48.928;12.704;2022-07-03T01:43:07;16.10;99.90
10572;DHT22;5334;48.928;12.704;2022-07-03T01:45:37;16.00;99.90
10572;DHT22;5334;48.928;12.704;2022-07-03T01:48:05;16.00;99.90
10572;DHT22;5334;48.928;12.704;2022-07-03T01:50:32;16.00;99.90
10572;DHT22;5334;48.928;12.704;2022-07-03T01:53:01;16.00;99.90
10572;DHT22;5334;48.928;12.704;2022-07-03T01:55:30;16.00;99.90
10572;DHT22;5334;48.928;12.704;2022-07-03T01:57:57;15.90;99.90
10572;DHT22;5334;48.928;12.704;2022-07-03T02:00:23;15.90;99.90
10572;DHT22;5334;48.928;12.704;2022-07-03T02:03:04;15.80;99.90
10572;DHT22;5334;48.928;12.704;2022-07-03T02:05:38;15.60;99.90
10572;DHT22;5334;48.928;12.704;2022-07-03T02:10:45;15.50;99.90
10572;DHT22;5334;48.928;12.704;2022-07-03T02:13:16;15.50;99.90
10572;DHT22;5334;48.928;12.704;2022-07-03T02:15:44;15.40;99.90
10572;DHT22;5334;48.928;12.704;2022-07-03T02:18:24;15.40;99.90
10572;DHT22;5334;48.928;12.704;2022-07-03T02:21:25;15.40;99.90
10572;DHT22;5334;48.928;12.704;2022-07-03T02:26:42;15.20;99.90
10572;DHT22;5334;48.928;12.704;2022-07-03T02:29:17;15.20;99.90
10572;DHT22;5334;48.928;12.704;2022-07-03T02:31:48;15.10;99.90
10572;DHT22;5334;48.928;12.704;2022-07-03T02:34:22;15.10;99.90
10572;DHT22;5334;48.928;12.704;2022-07-03T02:36:52;15.00;99.90
10572;DHT22;5334;48.928;12.704;2022-07-03T02:39:28;15.00;99.90
10572;DHT22;5334;48.928;12.704;2022-07-03T02:42:07;14.90;99.90
10572;DHT22;5334;48.928;12.704;2022-07-03T02:44:46;14.90;99.90
10572;DHT22;5334;48.928;12.704;2022-07-03T02:47:29;14.90;99.90
10572;DHT22;5334;48.928;12.704;2022-07-03T02:50:08;14.80;99.90
10572;DHT22;5334;48.928;12.704;2022-07-03T02:55:39;14.70;99.90
10572;DHT22;5334;48.928;12.704;2022-07-03T02:58:32;14.70;99.90
10572;DHT22;5334;48.928;12.704;2022-07-03T03:03:54;14.60;99.90
10572;DHT22;5334;48.928;12.704;2022-07-03T03:06:25;14.70;99.90
10572;DHT22;5334;48.928;12.704;2022-07-03T03:09:04;14.70;99.90
10572;DHT22;5334;48.928;12.704;2022-07-03T03:11:42;14.70;99.90
10572;DHT22;5334;48.928;12.704;2022-07-03T03:14:12;14.70;99.90
10572;DHT22;5334;48.928;12.704;2022-07-03T03:16:47;14.60;99.90
10572;DHT22;5334;48.928;12.704;2022-07-03T03:19:13;14.60;99.90
10572;DHT22;5334;48.928;12.704;2022-07-03T03:21:51;14.50;99.90
10572;DHT22;5334;48.928;12.704;2022-07-03T03:24:18;14.40;99.90
10572;DHT22;5334;48.928;12.704;2022-07-03T03:26:45;14.40;99.90
10572;DHT22;5334;48.928;12.704;2022-07-03T03:29:11;14.40;99.90
10572;DHT22;5334;48.928;12.704;2022-07-03T03:31:36;14.40;99.90
10572;DHT22;5334;48.928;12.704;2022-07-03T03:34:03;14.40;99.90
10572;DHT22;5334;48.928;12.704;2022-07-03T03:36:29;14.40;99.90
10572;DHT22;5334;48.928;12.704;2022-07-03T03:38:55;14.40;99.90
10572;DHT22;5334;48.928;12.704;2022-07-03T03:41:21;14.40;99.90
10572;DHT22;5334;48.928;12.704;2022-07-03T03:43:47;14.40;99.90
10572;DHT22;5334;48.928;12.704;2022-07-03T03:46:13;14.30;99.90
10572;DHT22;5334;48.928;12.704;2022-07-03T03:48:41;14.30;99.90
10572;DHT22;5334;48.928;12.704;2022-07-03T03:51:07;14.40;99.90
10572;DHT22;5334;48.928;12.704;2022-07-03T03:53:33;14.40;99.90
10572;DHT22;5334;48.928;12.704;2022-07-03T03:56:07;14.40;99.90
10572;DHT22;5334;48.928;12.704;2022-07-03T03:58:36;14.50;99.90
10572;DHT22;5334;48.928;12.704;2022-07-03T04:01:04;14.40;99.90
10572;DHT22;5334;48.928;12.704;2022-07-03T04:03:31;14.50;99.90
10572;DHT22;5334;48.928;12.704;2022-07-03T04:05:57;14.60;99.90
10572;DHT22;5334;48.928;12.704;2022-07-03T04:08:24;14.70;99.90
10572;DHT22;5334;48.928;12.704;2022-07-03T04:10:50;14.70;99.90
10572;DHT22;5334;48.928;12.704;2022-07-03T04:13:16;14.80;99.90
10572;DHT22;5334;48.928;12.704;2022-07-03T04:15:42;14.90;99.90
10572;DHT22;5334;48.928;12.704;2022-07-03T04:18:08;14.90;99.90
10572;DHT22;5334;48.928;12.704;2022-07-03T04:20:34;15.00;99.90
10572;DHT22;5334;48.928;12.704;2022-07-03T04:22:59;15.00;99.90
10572;DHT22;5334;48.928;12.704;2022-07-03T04:25:25;15.10;99.90
10572;DHT22;5334;48.928;12.704;2022-07-03T04:27:51;15.20;99.90
10572;DHT22;5334;48.928;12.704;2022-07-03T04:30:17;15.40;99.90
10572;DHT22;5334;48.928;12.704;2022-07-03T04:32:43;15.60;99.90
10572;DHT22;5334;48.928;12.704;2022-07-03T04:35:09;15.80;99.90
10572;DHT22;5334;48.928;12.704;2022-07-03T04:37:35;15.90;99.90
10572;DHT22;5334;48.928;12.704;2022-07-03T04:40:01;16.10;99.90
10572;DHT22;5334;48.928;12.704;2022-07-03T04:42:27;16.30;99.90
10572;DHT22;5334;48.928;12.704;2022-07-03T04:44:53;16.50;99.90
10572;DHT22;5334;48.928;12.704;2022-07-03T04:47:18;16.80;99.90
10572;DHT22;5334;48.928;12.704;2022-07-03T04:49:44;17.00;99.90
10572;DHT22;5334;48.928;12.704;2022-07-03T04:52:10;17.10;99.90
10572;DHT22;5334;48.928;12.704;2022-07-03T04:54:36;17.30;99.90
10572;DHT22;5334;48.928;12.704;2022-07-03T04:57:02;17.50;99.90
10572;DHT22;5334;48.928;12.704;2022-07-03T04:59:28;17.60;99.90
10572;DHT22;5334;48.928;12.704;2022-07-03T05:01:54;17.80;99.90
10572;DHT22;5334;48.928;12.704;2022-07-03T05:04:20;18.00;99.90
10572;DHT22;5334;48.928;12.704;2022-07-03T05:06:46;18.10;99.90
10572;DHT22;5334;48.928;12.704;2022-07-03T05:09:12;18.00;99.90
10572;DHT22;5334;48.928;12.704;2022-07-03T05:11:38;18.00;99.90
10572;DHT22;5334;48.928;12.704;2022-07-03T05:14:04;18.10;99.90
10572;DHT22;5334;48.928;12.704;2022-07-03T05:16:30;18.20;99.90
10572;DHT22;5334;48.928;12.704;2022-07-03T05:18:56;18.20;99.90
10572;DHT22;5334;48.928;12.704;2022-07-03T05:21:22;18.40;99.90
10572;DHT22;5334;48.928;12.704;2022-07-03T05:23:47;18.70;99.90
10572;DHT22;5334;48.928;12.704;2022-07-03T05:26:13;18.70;99.90
10572;DHT22;5334;48.928;12.704;2022-07-03T05:28:39;18.90;99.90
10572;DHT22;5334;48.928;12.704;2022-07-03T05:31:05;19.10;99.90
10572;DHT22;5334;48.928;12.704;2022-07-03T05:33:31;19.40;99.90
10572;DHT22;5334;48.928;12.704;2022-07-03T05:35:58;19.60;99.90
10572;DHT22;5334;48.928;12.704;2022-07-03T05:38:24;19.80;99.90
10572;DHT22;5334;48.928;12.704;2022-07-03T05:41:09;20.00;99.90
10572;DHT22;5334;48.928;12.704;2022-07-03T05:43:35;20.10;99.90
10572;DHT22;5334;48.928;12.704;2022-07-03T05:46:00;20.20;99.90
10572;DHT22;5334;48.928;12.704;2022-07-03T05:48:26;20.20;99.90
10572;DHT22;5334;48.928;12.704;2022-07-03T05:50:52;20.30;99.90
10572;DHT22;5334;48.928;12.704;2022-07-03T05:53:18;20.50;99.90
10572;DHT22;5334;48.928;12.704;2022-07-03T05:55:43;20.60;99.90
10572;DHT22;5334;48.928;12.704;2022-07-03T05:58:09;20.70;99.90
10572;DHT22;5334;48.928;12.704;2022-07-03T06:00:35;20.90;99.90
10572;DHT22;5334;48.928;12.704;2022-07-03T06:03:01;21.00;99.90
10572;DHT22;5334;48.928;12.704;2022-07-03T06:10:20;21.50;99.90
10572;DHT22;5334;48.928;12.704;2022-07-03T06:12:46;21.70;99.90
10572;DHT22;5334;48.928;12.704;2022-07-03T06:15:12;21.90;99.90
10572;DHT22;5334;48.928;12.704;2022-07-03T06:17:38;22.00;99.90
10572;DHT22;5334;48.928;12.704;2022-07-03T06:20:04;22.10;99.90
10572;DHT22;5334;48.928;12.704;2022-07-03T06:22:30;22.40;99.90
10572;DHT22;5334;48.928;12.704;2022-07-03T06:24:56;22.60;99.90
10572;DHT22;5334;48.928;12.704;2022-07-03T06:27:21;22.70;99.90
10572;DHT22;5334;48.928;12.704;2022-07-03T06:29:48;23.00;99.90
10572;DHT22;5334;48.928;12.704;2022-07-03T06:32:15;22.90;99.90
10572;DHT22;5334;48.928;12.704;2022-07-03T06:34:41;23.00;99.90
10572;DHT22;5334;48.928;12.704;2022-07-03T06:37:09;23.00;99.90
10572;DHT22;5334;48.928;12.704;2022-07-03T06:39:35;23.10;99.90
10572;DHT22;5334;48.928;12.704;2022-07-03T06:42:00;23.10;99.90
10572;DHT22;5334;48.928;12.704;2022-07-03T06:44:26;23.40;99.90
10572;DHT22;5334;48.928;12.704;2022-07-03T06:46:53;23.60;99.90
10572;DHT22;5334;48.928;12.704;2022-07-03T06:49:19;23.60;99.90
10572;DHT22;5334;48.928;12.704;2022-07-03T06:51:45;23.40;99.90
10572;DHT22;5334;48.928;12.704;2022-07-03T06:54:10;23.40;99.90
10572;DHT22;5334;48.928;12.704;2022-07-03T06:56:36;23.40;99.90
10572;DHT22;5334;48.928;12.704;2022-07-03T06:59:02;23.50;99.90
10572;DHT22;5334;48.928;12.704;2022-07-03T07:01:27;23.40;99.90
10572;DHT22;5334;48.928;12.704;2022-07-03T07:03:53;23.30;99.90
10572;DHT22;5334;48.928;12.704;2022-07-03T07:06:19;23.30;99.90
10572;DHT22;5334;48.928;12.704;2022-07-03T07:08:45;23.30;99.90
10572;DHT22;5334;48.928;12.704;2022-07-03T07:11:11;23.40;99.90
10572;DHT22;5334;48.928;12.704;2022-07-03T07:13:37;23.50;99.90
10572;DHT22;5334;48.928;12.704;2022-07-03T07:16:02;23.50;99.90
10572;DHT22;5334;48.928;12.704;2022-07-03T07:18:28;23.40;99.90
10572;DHT22;5334;48.928;12.704;2022-07-03T07:20:54;23.40;99.90
10572;DHT22;5334;48.928;12.704;2022-07-03T07:23:19;23.50;99.90
10572;DHT22;5334;48.928;12.704;2022-07-03T07:25:45;23.30;99.90
10572;DHT22;5334;48.928;12.704;2022-07-03T07:28:11;23.30;99.90
10572;DHT22;5334;48.928;12.704;2022-07-03T07:30:36;23.50;99.90
10572;DHT22;5334;48.928;12.704;2022-07-03T07:33:07;23.50;99.90
10572;DHT22;5334;48.928;12.704;2022-07-03T07:35:33;23.40;99.90
10572;DHT22;5334;48.928;12.704;2022-07-03T07:37:59;23.50;99.90
10572;DHT22;5334;48.928;12.704;2022-07-03T07:40:25;23.70;99.90
10572;DHT22;5334;48.928;12.704;2022-07-03T07:42:51;24.00;99.90
10572;DHT22;5334;48.928;12.704;2022-07-03T07:45:16;24.10;99.90
10572;DHT22;5334;48.928;12.704;2022-07-03T07:47:42;24.30;99.90
10572;DHT22;5334;48.928;12.704;2022-07-03T07:50:08;24.20;99.90
10572;DHT22;5334;48.928;12.704;2022-07-03T07:52:34;24.30;99.90
10572;DHT22;5334;48.928;12.704;2022-07-03T07:55:00;24.40;99.90
10572;DHT22;5334;48.928;12.704;2022-07-03T07:59:59;24.60;99.90
10572;DHT22;5334;48.928;12.704;2022-07-03T08:02:24;24.50;99.90
10572;DHT22;5334;48.928;12.704;2022-07-03T08:05:09;24.60;99.90
10572;DHT22;5334;48.928;12.704;2022-07-03T08:10:19;25.00;99.60
10572;DHT22;5334;48.928;12.704;2022-07-03T08:17:36;25.70;98.90
10572;DHT22;5334;48.928;12.704;2022-07-03T08:20:02;25.60;99.20
10572;DHT22;5334;48.928;12.704;2022-07-03T08:24:55;25.80;98.60
10572;DHT22;5334;48.928;12.704;2022-07-03T08:27:21;25.80;99.90
10572;DHT22;5334;48.928;12.704;2022-07-03T08:29:47;26.00;98.80
10572;DHT22;5334;48.928;12.704;2022-07-03T08:32:12;25.90;98.20
10572;DHT22;5334;48.928;12.704;2022-07-03T08:34:38;25.90;98.70
10572;DHT22;5334;48.928;12.704;2022-07-03T08:37:04;26.00;98.30
10572;DHT22;5334;48.928;12.704;2022-07-03T08:39:29;26.20;97.30
10572;DHT22;5334;48.928;12.704;2022-07-03T08:41:55;26.10;97.80
10572;DHT22;5334;48.928;12.704;2022-07-03T08:44:22;26.00;97.50
10572;DHT22;5334;48.928;12.704;2022-07-03T08:46:51;25.90;97.70
10572;DHT22;5334;48.928;12.704;2022-07-03T08:49:18;26.00;97.90
10572;DHT22;5334;48.928;12.704;2022-07-03T09:06:26;26.60;97.40
10572;DHT22;5334;48.928;12.704;2022-07-03T09:09:01;26.70;97.70
10572;DHT22;5334;48.928;12.704;2022-07-03T09:11:28;27.10;98.00
10572;DHT22;5334;48.928;12.704;2022-07-03T09:13:53;26.80;97.70
10572;DHT22;5334;48.928;12.704;2022-07-03T09:16:19;26.60;97.90
10572;DHT22;5334;48.928;12.704;2022-07-03T09:18:45;26.50;97.70
10572;DHT22;5334;48.928;12.704;2022-07-03T09:21:11;26.70;97.70
10572;DHT22;5334;48.928;12.704;2022-07-03T09:23:39;26.90;97.70
10572;DHT22;5334;48.928;12.704;2022-07-03T09:26:06;27.10;96.30
10572;DHT22;5334;48.928;12.704;2022-07-03T09:28:52;27.20;97.10
10572;DHT22;5334;48.928;12.704;2022-07-03T09:31:20;26.60;97.20
10572;DHT22;5334;48.928;12.704;2022-07-03T09:33:55;26.40;97.50
10572;DHT22;5334;48.928;12.704;2022-07-03T09:36:23;26.40;97.30
10572;DHT22;5334;48.928;12.704;2022-07-03T09:39:13;26.50;98.00
10572;DHT22;5334;48.928;12.704;2022-07-03T09:41:51;26.90;97.50
10572;DHT22;5334;48.928;12.704;2022-07-03T09:44:34;27.30;97.20
10572;DHT22;5334;48.928;12.704;2022-07-03T09:47:20;27.50;97.00
10572;DHT22;5334;48.928;12.704;2022-07-03T09:50:02;27.50;97.40
10572;DHT22;5334;48.928;12.704;2022-07-03T09:54:59;27.90;96.00
10572;DHT22;5334;48.928;12.704;2022-07-03T09:57:28;28.10;96.10
10572;DHT22;5334;48.928;12.704;2022-07-03T10:02:50;27.90;96.40
10572;DHT22;5334;48.928;12.704;2022-07-03T10:05:16;27.90;95.90
10572;DHT22;5334;48.928;12.704;2022-07-03T10:10:35;28.00;95.10
10572;DHT22;5334;48.928;12.704;2022-07-03T10:13:01;28.00;94.70
10572;DHT22;5334;48.928;12.704;2022-07-03T10:15:30;28.30;95.20
10572;DHT22;5334;48.928;12.704;2022-07-03T10:17:58;28.40;94.70
10572;DHT22;5334;48.928;12.704;2022-07-03T10:20:27;28.50;94.30
10572;DHT22;5334;48.928;12.704;2022-07-03T10:22:54;28.40;93.30
10572;DHT22;5334;48.928;12.704;2022-07-03T10:25:20;28.50;94.10
10572;DHT22;5334;48.928;12.704;2022-07-03T10:27:46;28.50;94.20
10572;DHT22;5334;48.928;12.704;2022-07-03T10:30:15;28.70;94.40
10572;DHT22;5334;48.928;12.704;2022-07-03T10:32:44;29.00;94.60
10572;DHT22;5334;48.928;12.704;2022-07-03T10:35:12;28.90;93.80
10572;DHT22;5334;48.928;12.704;2022-07-03T10:38:08;28.80;92.70
10572;DHT22;5334;48.928;12.704;2022-07-03T10:43:37;29.50;93.20
10572;DHT22;5334;48.928;12.704;2022-07-03T10:46:23;29.60;92.60
10572;DHT22;5334;48.928;12.704;2022-07-03T10:51:21;30.10;92.10
10572;DHT22;5334;48.928;12.704;2022-07-03T10:53:48;30.00;92.10
10572;DHT22;5334;48.928;12.704;2022-07-03T10:56:14;30.40;92.10
10572;DHT22;5334;48.928;12.704;2022-07-03T10:58:56;30.30;91.40
10572;DHT22;5334;48.928;12.704;2022-07-03T11:01:29;30.10;91.50
10572;DHT22;5334;48.928;12.704;2022-07-03T11:03:58;30.20;92.00
10572;DHT22;5334;48.928;12.704;2022-07-03T11:09:14;30.10;92.10
10572;DHT22;5334;48.928;12.704;2022-07-03T11:14:27;30.60;91.90
10572;DHT22;5334;48.928;12.704;2022-07-03T11:17:21;30.60;90.70
10572;DHT22;5334;48.928;12.704;2022-07-03T11:19:48;30.80;90.60
10572;DHT22;5334;48.928;12.704;2022-07-03T11:25:22;30.90;89.80
10572;DHT22;5334;48.928;12.704;2022-07-03T11:27:50;30.90;90.20
10572;DHT22;5334;48.928;12.704;2022-07-03T11:30:18;31.10;90.50
10572;DHT22;5334;48.928;12.704;2022-07-03T11:35:44;31.10;89.80
10572;DHT22;5334;48.928;12.704;2022-07-03T11:38:28;30.90;89.70
10572;DHT22;5334;48.928;12.704;2022-07-03T11:40:58;30.70;90.70
10572;DHT22;5334;48.928;12.704;2022-07-03T11:43:24;30.90;90.40
10572;DHT22;5334;48.928;12.704;2022-07-03T11:45:50;30.90;89.30
10572;DHT22;5334;48.928;12.704;2022-07-03T11:48:17;31.10;87.90
10572;DHT22;5334;48.928;12.704;2022-07-03T11:53:17;31.50;87.80
10572;DHT22;5334;48.928;12.704;2022-07-03T11:55:47;31.70;90.50
10572;DHT22;5334;48.928;12.704;2022-07-03T11:58:13;31.30;88.10
10572;DHT22;5334;48.928;12.704;2022-07-03T12:03:05;31.60;88.30
10572;DHT22;5334;48.928;12.704;2022-07-03T12:05:31;31.50;86.80
10572;DHT22;5334;48.928;12.704;2022-07-03T12:08:06;31.90;86.60
10572;DHT22;5334;48.928;12.704;2022-07-03T12:10:41;32.10;85.60
10572;DHT22;5334;48.928;12.704;2022-07-03T12:13:23;32.30;85.00
10572;DHT22;5334;48.928;12.704;2022-07-03T12:15:49;32.10;85.50
10572;DHT22;5334;48.928;12.704;2022-07-03T12:18:15;32.30;86.20
10572;DHT22;5334;48.928;12.704;2022-07-03T12:20:41;32.40;86.00
10572;DHT22;5334;48.928;12.704;2022-07-03T12:23:08;32.10;84.70
10572;DHT22;5334;48.928;12.704;2022-07-03T12:25:40;31.80;85.50
10572;DHT22;5334;48.928;12.704;2022-07-03T12:28:08;32.90;86.20
10572;DHT22;5334;48.928;12.704;2022-07-03T12:30:35;32.90;86.80
10572;DHT22;5334;48.928;12.704;2022-07-03T12:33:02;33.00;84.80
10572;DHT22;5334;48.928;12.704;2022-07-03T12:35:28;32.80;83.80
10572;DHT22;5334;48.928;12.704;2022-07-03T12:37:54;32.90;85.40
10572;DHT22;5334;48.928;12.704;2022-07-03T12:40:20;32.70;85.20
10572;DHT22;5334;48.928;12.704;2022-07-03T12:42:50;32.60;84.80
10572;DHT22;5334;48.928;12.704;2022-07-03T12:45:18;32.50;84.80
10572;DHT22;5334;48.928;12.704;2022-07-03T12:47:44;32.50;84.20
10572;DHT22;5334;48.928;12.704;2022-07-03T12:50:11;32.50;85.60
10572;DHT22;5334;48.928;12.704;2022-07-03T12:52:54;32.50;84.70
10572;DHT22;5334;48.928;12.704;2022-07-03T12:55:29;32.30;84.10
10572;DHT22;5334;48.928;12.704;2022-07-03T12:58:15;32.10;83.40
10572;DHT22;5334;48.928;12.704;2022-07-03T13:01:00;32.20;84.20
10572;DHT22;5334;48.928;12.704;2022-07-03T13:03:31;32.20;83.30
10572;DHT22;5334;48.928;12.704;2022-07-03T13:05:57;32.50;82.90
10572;DHT22;5334;48.928;12.704;2022-07-03T13:08:23;33.00;82.70
10572;DHT22;5334;48.928;12.704;2022-07-03T13:10:59;33.30;80.20
10572;DHT22;5334;48.928;12.704;2022-07-03T13:13:25;33.30;80.50
10572;DHT22;5334;48.928;12.704;2022-07-03T13:15:51;33.40;80.90
10572;DHT22;5334;48.928;12.704;2022-07-03T13:18:18;33.40;80.50
10572;DHT22;5334;48.928;12.704;2022-07-03T13:20:44;33.50;79.70
10572;DHT22;5334;48.928;12.704;2022-07-03T13:23:10;33.80;80.70
10572;DHT22;5334;48.928;12.704;2022-07-03T13:25:37;33.80;78.50
10572;DHT22;5334;48.928;12.704;2022-07-03T13:28:13;33.30;80.30
10572;DHT22;5334;48.928;12.704;2022-07-03T13:30:41;33.20;80.20
10572;DHT22;5334;48.928;12.704;2022-07-03T13:33:08;33.20;81.20
10572;DHT22;5334;48.928;12.704;2022-07-03T13:35:35;33.70;81.30
10572;DHT22;5334;48.928;12.704;2022-07-03T13:38:01;34.20;80.80
10572;DHT22;5334;48.928;12.704;2022-07-03T13:40:26;33.80;80.60
10572;DHT22;5334;48.928;12.704;2022-07-03T13:42:52;33.60;81.90
10572;DHT22;5334;48.928;12.704;2022-07-03T13:45:18;33.20;79.80
10572;DHT22;5334;48.928;12.704;2022-07-03T13:47:44;32.90;79.40
10572;DHT22;5334;48.928;12.704;2022-07-03T13:50:10;33.20;80.90
10572;DHT22;5334;48.928;12.704;2022-07-03T13:52:36;33.30;81.10
10572;DHT22;5334;48.928;12.704;2022-07-03T13:55:02;33.20;79.80
10572;DHT22;5334;48.928;12.704;2022-07-03T13:57:28;33.30;79.20
10572;DHT22;5334;48.928;12.704;2022-07-03T13:59:54;33.70;78.60
10572;DHT22;5334;48.928;12.704;2022-07-03T14:02:20;33.90;78.30
10572;DHT22;5334;48.928;12.704;2022-07-03T14:04:45;33.80;79.40
10572;DHT22;5334;48.928;12.704;2022-07-03T14:07:11;33.30;78.30
10572;DHT22;5334;48.928;12.704;2022-07-03T14:09:37;33.00;78.00
10572;DHT22;5334;48.928;12.704;2022-07-03T14:12:03;33.00;78.50
10572;DHT22;5334;48.928;12.704;2022-07-03T14:14:28;33.20;79.30
10572;DHT22;5334;48.928;12.704;2022-07-03T14:16:54;33.50;78.70
10572;DHT22;5334;48.928;12.704;2022-07-03T14:19:20;33.70;77.70
10572;DHT22;5334;48.928;12.704;2022-07-03T14:21:46;33.70;76.00
10572;DHT22;5334;48.928;12.704;2022-07-03T14:24:11;33.70;75.10
10572;DHT22;5334;48.928;12.704;2022-07-03T14:26:37;33.60;75.50
10572;DHT22;5334;48.928;12.704;2022-07-03T14:29:21;33.50;75.00
10572;DHT22;5334;48.928;12.704;2022-07-03T14:32:05;33.70;75.60
10572;DHT22;5334;48.928;12.704;2022-07-03T14:34:49;33.70;74.80
10572;DHT22;5334;48.928;12.704;2022-07-03T14:37:15;33.40;73.90
10572;DHT22;5334;48.928;12.704;2022-07-03T14:39:44;33.40;74.70
10572;DHT22;5334;48.928;12.704;2022-07-03T14:42:10;33.60;74.20
10572;DHT22;5334;48.928;12.704;2022-07-03T14:44:36;33.50;72.80
10572;DHT22;5334;48.928;12.704;2022-07-03T14:47:02;33.20;73.70
10572;DHT22;5334;48.928;12.704;2022-07-03T14:49:28;32.80;74.80
10572;DHT22;5334;48.928;12.704;2022-07-03T14:51:53;32.70;75.70
10572;DHT22;5334;48.928;12.704;2022-07-03T14:54:20;32.90;76.20
10572;DHT22;5334;48.928;12.704;2022-07-03T14:56:58;33.20;74.70
10572;DHT22;5334;48.928;12.704;2022-07-03T15:02:05;33.10;75.50
10572;DHT22;5334;48.928;12.704;2022-07-03T15:05:02;33.00;75.20
10572;DHT22;5334;48.928;12.704;2022-07-03T15:07:37;32.90;74.80
10572;DHT22;5334;48.928;12.704;2022-07-03T15:10:08;32.70;74.30
10572;DHT22;5334;48.928;12.704;2022-07-03T15:12:38;32.80;75.20
10572;DHT22;5334;48.928;12.704;2022-07-03T15:15:09;32.70;75.30
10572;DHT22;5334;48.928;12.704;2022-07-03T15:17:35;32.60;70.70
10572;DHT22;5334;48.928;12.704;2022-07-03T15:20:02;32.40;71.10
10572;DHT22;5334;48.928;12.704;2022-07-03T15:22:30;32.30;68.30
10572;DHT22;5334;48.928;12.704;2022-07-03T15:24:57;32.40;69.50
10572;DHT22;5334;48.928;12.704;2022-07-03T15:27:24;32.50;71.90
10572;DHT22;5334;48.928;12.704;2022-07-03T15:29:50;32.40;73.90
10572;DHT22;5334;48.928;12.704;2022-07-03T15:32:17;32.20;73.00
10572;DHT22;5334;48.928;12.704;2022-07-03T15:34:44;32.10;71.00
10572;DHT22;5334;48.928;12.704;2022-07-03T15:40:15;32.00;72.80
10572;DHT22;5334;48.928;12.704;2022-07-03T15:45:46;31.50;69.70
10572;DHT22;5334;48.928;12.704;2022-07-03T15:48:18;31.30;69.30
10572;DHT22;5334;48.928;12.704;2022-07-03T15:51:19;31.20;69.50
10572;DHT22;5334;48.928;12.704;2022-07-03T15:53:49;31.20;71.50
10572;DHT22;5334;48.928;12.704;2022-07-03T15:56:19;31.20;71.70
10572;DHT22;5334;48.928;12.704;2022-07-03T15:58:50;31.20;70.50
10572;DHT22;5334;48.928;12.704;2022-07-03T16:01:23;31.10;70.10
10572;DHT22;5334;48.928;12.704;2022-07-03T16:06:58;31.10;70.40
10572;DHT22;5334;48.928;12.704;2022-07-03T16:09:25;31.20;71.40
10572;DHT22;5334;48.928;12.704;2022-07-03T16:11:51;31.40;70.60
10572;DHT22;5334;48.928;12.704;2022-07-03T16:14:17;31.40;68.50
10572;DHT22;5334;48.928;12.704;2022-07-03T16:16:43;31.30;69.30
10572;DHT22;5334;48.928;12.704;2022-07-03T16:19:11;31.20;69.00
10572;DHT22;5334;48.928;12.704;2022-07-03T16:21:38;31.20;67.80
10572;DHT22;5334;48.928;12.704;2022-07-03T16:24:05;31.10;66.80
10572;DHT22;5334;48.928;12.704;2022-07-03T16:26:35;31.00;65.90
10572;DHT22;5334;48.928;12.704;2022-07-03T16:29:02;31.00;65.10
10572;DHT22;5334;48.928;12.704;2022-07-03T16:31:36;30.90;66.40
10572;DHT22;5334;48.928;12.704;2022-07-03T16:34:23;30.70;67.00
10572;DHT22;5334;48.928;12.704;2022-07-03T16:36:52;30.70;65.50
10572;DHT22;5334;48.928;12.704;2022-07-03T16:39:34;30.80;67.10
10572;DHT22;5334;48.928;12.704;2022-07-03T16:42:01;30.70;66.40
10572;DHT22;5334;48.928;12.704;2022-07-03T16:44:28;30.50;63.90
10572;DHT22;5334;48.928;12.704;2022-07-03T16:46:59;30.40;64.80
10572;DHT22;5334;48.928;12.704;2022-07-03T16:49:30;30.30;64.90
10572;DHT22;5334;48.928;12.704;2022-07-03T16:52:08;30.30;66.60
10572;DHT22;5334;48.928;12.704;2022-07-03T16:54:35;30.30;67.00
10572;DHT22;5334;48.928;12.704;2022-07-03T16:57:04;30.20;65.00
10572;DHT22;5334;48.928;12.704;2022-07-03T16:59:32;30.00;66.20
10572;DHT22;5334;48.928;12.704;2022-07-03T17:01:58;29.90;66.50
10572;DHT22;5334;48.928;12.704;2022-07-03T17:04:28;29.80;66.60
10572;DHT22;5334;48.928;12.704;2022-07-03T17:06:55;29.80;67.20
10572;DHT22;5334;48.928;12.704;2022-07-03T17:09:22;29.80;65.10
10572;DHT22;5334;48.928;12.704;2022-07-03T17:11:48;29.70;63.50
10572;DHT22;5334;48.928;12.704;2022-07-03T17:14:14;29.60;63.90
10572;DHT22;5334;48.928;12.704;2022-07-03T17:17:04;29.60;63.30
10572;DHT22;5334;48.928;12.704;2022-07-03T17:19:31;29.60;66.10
10572;DHT22;5334;48.928;12.704;2022-07-03T17:21:57;29.70;66.20
10572;DHT22;5334;48.928;12.704;2022-07-03T17:24:29;29.70;66.10